Time;durP1;ratioP1;P1;durP2;ratioP2;P2;SDS_P1;SDS_P2;PMS_P1;PMS_P2;Temp;Humidity;BMP_temperature;BMP_pressure;BME280_temperature;BME280_humidity;BME280_pressure;Samples;Min_cycle;Max_cycle;Signal;HPM_P1;HPM_P2
2020/12/20 00:02:23;;;;;;;9.33;8.53;;;;;;;-1.15;93.87;96039.00;6028764;23;20879;-69
2020/12/20 00:04:50;;;;;;;9.30;7.67;;;;;;;-1.10;93.59;96039.50;6029544;23;20219;-69
2020/12/20 00:07:21;;;;;;;8.37;7.63;;;;;;;-1.13;93.54;96034.53;6029851;23;20679;-70
2020/12/20 00:09:48;;;;;;;8.97;8.10;;;;;;;-1.09;93.08;96030.84;6028330;23;20459;-70
2020/12/20 00:12:15;;;;;;;7.57;6.50;;;;;;;-1.15;93.54;96026.06;6028208;23;20491;-70
2020/12/20 00:14:43;;;;;;;9.83;8.67;;;;;;;-1.16;93.60;96021.81;6029131;23;20498;-70
2020/12/20 00:17:12;;;;;;;9.83;8.93;;;;;;;-1.02;93.52;96028.63;6027874;23;20499;-69
2020/12/20 00:19:39;;;;;;;9.60;8.17;;;;;;;-0.96;93.47;96016.09;6029145;23;20444;-70
2020/12/20 00:22:08;;;;;;;7.87;7.17;;;;;;;-0.95;92.86;96025.53;6030127;23;20436;-70
2020/12/20 00:24:36;;;;;;;8.20;7.37;;;;;;;-1.03;92.73;96032.16;6029069;23;20760;-69
2020/12/20 00:27:04;;;;;;;8.33;7.53;;;;;;;-1.06;92.83;96024.63;6029252;23;20449;-70
2020/12/20 00:29:33;;;;;;;8.33;7.50;;;;;;;-1.04;93.30;96030.50;6029950;23;20432;-69
2020/12/20 00:32:01;;;;;;;12.47;9.03;;;;;;;-1.00;92.74;96021.63;6028025;23;20443;-70
2020/12/20 00:34:28;;;;;;;11.37;9.73;;;;;;;-1.06;92.88;96022.84;6030118;23;20465;-70
2020/12/20 00:36:55;;;;;;;7.33;6.60;;;;;;;-1.12;92.97;96020.66;6028816;23;20212;-70
2020/12/20 00:39:23;;;;;;;9.83;8.37;;;;;;;-1.07;93.14;96030.72;6029628;23;20436;-70
2020/12/20 00:41:51;;;;;;;8.17;7.40;;;;;;;-1.13;92.96;96026.78;6029496;23;20443;-70
2020/12/20 00:44:18;;;;;;;9.97;9.07;;;;;;;-1.15;93.34;96019.13;6028553;23;20440;-69
2020/12/20 00:46:45;;;;;;;8.87;8.07;;;;;;;-1.16;93.57;96027.00;6028073;23;20551;-70
2020/12/20 00:49:23;;;;;;;7.93;7.03;;;;;;;-1.18;93.53;96023.69;6027808;23;20450;-70
2020/12/20 00:51:52;;;;;;;10.33;9.37;;;;;;;-1.15;93.26;96028.66;6027831;23;20447;-70
2020/12/20 00:54:19;;;;;;;9.23;8.30;;;;;;;-1.16;93.58;96021.81;6028047;23;20503;-70
2020/12/20 00:56:47;;;;;;;9.20;8.20;;;;;;;-1.15;93.55;96011.34;6029161;23;20212;-69
2020/12/20 00:59:16;;;;;;;7.43;6.73;;;;;;;-1.15;94.30;96008.75;6028103;23;20445;-70
2020/12/20 01:01:43;;;;;;;10.17;8.63;;;;;;;-1.13;93.81;96007.81;6029575;23;20500;-70
2020/12/20 01:04:10;;;;;;;11.07;9.97;;;;;;;-1.08;93.74;96009.19;6028181;23;20495;-70
2020/12/20 01:06:39;;;;;;;10.80;9.73;;;;;;;-1.04;93.77;96015.78;6028113;23;20450;-69
2020/12/20 01:09:21;;;;;;;8.43;7.33;;;;;;;-1.04;93.86;96009.78;6027337;23;20475;-69
2020/12/20 01:11:49;;;;;;;12.60;8.93;;;;;;;-1.06;94.02;96011.66;6027491;23;20528;-70
2020/12/20 01:14:19;;;;;;;8.00;7.20;;;;;;;-1.11;93.75;96014.56;6027062;23;20524;-70
2020/12/20 01:17:03;;;;;;;10.43;9.33;;;;;;;-1.12;93.69;96018.06;6026851;23;20778;-70
2020/12/20 01:19:43;;;;;;;6.47;5.93;;;;;;;-1.16;93.59;96016.63;6050938;23;20435;-70
2020/12/20 01:22:10;;;;;;;9.43;7.97;;;;;;;-1.15;93.26;96018.28;6028544;23;20909;-70
2020/12/20 01:24:38;;;;;;;9.27;7.83;;;;;;;-1.13;93.93;96026.78;6028474;23;20433;-70
2020/12/20 01:27:13;;;;;;;9.13;7.40;;;;;;;-1.16;93.42;96024.41;6028636;23;20439;-70
2020/12/20 01:29:41;;;;;;;8.47;7.67;;;;;;;-1.15;93.32;96024.28;6028694;23;20439;-69
2020/12/20 01:32:08;;;;;;;11.07;8.37;;;;;;;-1.16;93.59;96019.22;6029841;23;20445;-70
2020/12/20 01:34:38;;;;;;;10.17;8.77;;;;;;;-1.14;93.70;96014.75;6027553;23;20440;-70
2020/12/20 01:37:05;;;;;;;9.43;8.50;;;;;;;-1.16;93.27;96014.06;6028162;23;20506;-70
2020/12/20 01:39:38;;;;;;;9.70;8.10;;;;;;;-1.17;93.35;96009.81;6027059;23;20510;-70
2020/12/20 01:42:05;;;;;;;8.50;7.67;;;;;;;-1.16;93.42;96009.69;6030604;23;21024;-70
2020/12/20 01:44:39;;;;;;;10.07;8.83;;;;;;;-1.15;93.82;96007.94;6030813;23;20500;-70
2020/12/20 01:47:08;;;;;;;7.43;6.70;;;;;;;-1.15;93.96;96005.34;6029398;23;20444;-71
2020/12/20 01:49:35;;;;;;;9.37;8.33;;;;;;;-1.13;94.34;96000.88;6028920;23;20951;-70
2020/12/20 01:52:04;;;;;;;11.80;9.63;;;;;;;-1.08;94.29;95996.22;6030027;23;20460;-70
2020/12/20 01:54:33;;;;;;;10.13;8.70;;;;;;;-1.05;94.11;95993.41;6029031;23;20512;-71
2020/12/20 01:57:12;;;;;;;9.13;7.70;;;;;;;-1.09;94.26;95992.00;6029407;23;20459;-70
2020/12/20 02:00:10;;;;;;;10.40;9.30;;;;;;;-1.06;94.28;95994.34;6028574;23;21037;-70
2020/12/20 02:02:55;;;;;;;8.77;7.97;;;;;;;-1.11;93.95;95993.84;6029648;23;20447;-70
2020/12/20 02:05:22;;;;;;;8.70;7.43;;;;;;;-1.10;94.32;95997.25;6029227;23;20436;-70
2020/12/20 02:07:51;;;;;;;9.30;8.30;;;;;;;-1.08;94.32;95988.47;6029904;23;20524;-71
2020/12/20 02:10:20;;;;;;;9.00;8.20;;;;;;;-1.03;94.32;95982.94;6029256;23;20288;-70
2020/12/20 02:12:50;;;;;;;8.50;7.67;;;;;;;-1.03;93.95;95985.53;6027567;23;20443;-70
2020/12/20 02:15:23;;;;;;;8.17;7.47;;;;;;;-1.09;93.74;95981.63;6027371;23;20204;-71
2020/12/20 02:17:53;;;;;;;8.00;7.33;;;;;;;-1.07;94.08;95979.75;6027852;23;20484;-70
2020/12/20 02:20:24;;;;;;;9.03;8.10;;;;;;;-1.04;93.65;95989.06;6027841;23;20491;-70
2020/12/20 02:23:02;;;;;;;7.77;7.10;;;;;;;-1.03;94.04;95985.53;6029678;23;20452;-70
2020/12/20 02:25:37;;;;;;;9.00;7.63;;;;;;;-1.01;93.76;95994.84;6029197;23;20199;-70
2020/12/20 02:28:16;;;;;;;8.67;7.43;;;;;;;-0.95;93.18;95991.84;6028827;23;20757;-70
2020/12/20 02:30:43;;;;;;;11.17;10.03;;;;;;;-0.93;93.32;95991.75;6029322;23;20437;-70
2020/12/20 02:33:19;;;;;;;9.13;7.30;;;;;;;-0.93;93.15;95978.78;6030641;23;20273;-70
2020/12/20 02:35:46;;;;;;;7.47;6.83;;;;;;;-0.94;92.48;95988.31;6029548;23;20206;-70
2020/12/20 02:38:16;;;;;;;8.90;8.00;;;;;;;-0.96;92.37;95987.63;6028693;23;20215;-70
2020/12/20 02:41:00;;;;;;;8.10;7.30;;;;;;;-0.97;93.00;95990.31;6029632;23;20468;-70
2020/12/20 02:43:28;;;;;;;8.33;7.53;;;;;;;-1.05;93.07;95988.25;6028793;23;20739;-70
2020/12/20 02:45:55;;;;;;;7.17;6.53;;;;;;;-1.07;93.28;95984.94;6029205;23;20605;-70
2020/12/20 02:48:22;;;;;;;9.77;8.87;;;;;;;-0.99;93.36;95987.84;6028829;23;20709;-70
2020/12/20 02:50:49;;;;;;;8.70;8.00;;;;;;;-1.04;93.20;95997.66;6028564;23;20207;-70
2020/12/20 02:53:18;;;;;;;8.77;7.93;;;;;;;-1.06;93.32;96006.47;6028979;23;20443;-69
2020/12/20 02:55:46;;;;;;;8.73;7.93;;;;;;;-1.07;93.67;96002.25;6030870;23;21131;-70
2020/12/20 02:58:15;;;;;;;9.23;8.37;;;;;;;-0.94;93.73;95992.69;6028343;23;20199;-70
2020/12/20 03:01:05;;;;;;;8.20;7.23;;;;;;;-1.01;93.11;95994.84;6030254;23;20986;-70
2020/12/20 03:03:32;;;;;;;8.13;7.33;;;;;;;-1.03;93.28;95996.72;6028396;23;20451;-70
2020/12/20 03:06:00;;;;;;;7.40;6.67;;;;;;;-1.03;93.68;95991.56;6031295;23;20440;-70
2020/12/20 03:08:28;;;;;;;7.77;7.17;;;;;;;-1.05;93.59;95987.41;6028608;23;20448;-70
2020/12/20 03:10:56;;;;;;;6.80;6.10;;;;;;;-1.06;93.23;95996.94;6030488;23;20444;-70
2020/12/20 03:13:23;;;;;;;7.93;7.23;;;;;;;-1.02;93.37;95990.63;6027150;23;20448;-70
2020/12/20 03:15:56;;;;;;;7.63;6.80;;;;;;;-0.98;93.57;95999.03;6030424;23;20205;-70
2020/12/20 03:18:28;;;;;;;9.73;8.80;;;;;;;-0.99;93.66;95984.41;6028084;23;20199;-70
2020/12/20 03:20:58;;;;;;;6.97;6.37;;;;;;;-1.00;93.74;95988.78;6028874;23;20439;-70
2020/12/20 03:23:29;;;;;;;9.57;7.27;;;;;;;-1.03;93.36;95991.56;6029135;23;20274;-70
2020/12/20 03:26:15;;;;;;;7.77;7.00;;;;;;;-1.00;93.42;95983.59;6028725;23;20932;-70
2020/12/20 03:29:07;;;;;;;7.33;6.73;;;;;;;-1.02;92.70;95988.03;6018241;23;21023;-70
2020/12/20 03:32:03;;;;;;;7.47;6.77;;;;;;;-1.02;92.54;95982.84;6028255;23;20523;-70
2020/12/20 03:34:49;;;;;;;8.00;7.23;;;;;;;-1.05;92.15;95977.88;6029956;23;20437;-70
2020/12/20 03:37:23;;;;;;;10.97;8.73;;;;;;;-1.08;92.30;95978.09;6028623;23;20449;-70
2020/12/20 03:40:07;;;;;;;8.57;7.33;;;;;;;-1.10;92.50;95979.94;6026861;23;20440;-70
2020/12/20 03:42:35;;;;;;;7.63;6.10;;;;;;;-1.06;92.36;95981.41;6027855;23;20451;-70
2020/12/20 03:45:02;;;;;;;6.77;6.27;;;;;;;-1.07;92.40;95973.75;6027555;23;20454;-70
2020/12/20 03:47:29;;;;;;;11.17;7.73;;;;;;;-1.14;92.37;95983.69;6027272;23;20496;-70
2020/12/20 03:49:58;;;;;;;8.37;7.57;;;;;;;-1.20;92.45;95974.56;6025911;23;20211;-70
2020/12/20 03:52:28;;;;;;;10.80;6.70;;;;;;;-1.27;92.79;95977.69;6027171;23;20451;-70
2020/12/20 03:55:05;;;;;;;8.60;7.67;;;;;;;-1.30;93.14;95977.88;6026378;23;20444;-70
2020/12/20 03:57:33;;;;;;;11.27;7.57;;;;;;;-1.33;93.40;95978.94;6026001;23;20443;-70
2020/12/20 04:00:03;;;;;;;7.43;6.73;;;;;;;-1.34;93.69;95974.69;6026149;23;20447;-70
2020/12/20 04:02:41;;;;;;;8.80;7.70;;;;;;;-1.35;93.91;95969.63;6028095;23;20524;-70
2020/12/20 04:05:12;;;;;;;9.37;6.87;;;;;;;-1.25;93.79;95975.84;6025997;23;20475;-70
2020/12/20 04:07:43;;;;;;;10.87;7.27;;;;;;;-1.24;93.41;95982.66;6026538;23;20442;-69
2020/12/20 04:10:10;;;;;;;7.43;6.83;;;;;;;-1.30;93.64;95977.88;6026505;23;20943;-70
2020/12/20 04:12:38;;;;;;;6.80;6.30;;;;;;;-1.32;94.00;95974.59;6025154;23;20443;-70
2020/12/20 04:15:05;;;;;;;9.13;6.47;;;;;;;-1.32;93.88;95975.41;6025704;23;20447;-70
2020/12/20 04:17:32;;;;;;;5.47;5.07;;;;;;;-1.33;93.97;95972.94;6026338;23;20440;-70
2020/12/20 04:20:00;;;;;;;6.80;6.20;;;;;;;-1.40;93.84;95971.69;6025780;23;20445;-70
2020/12/20 04:22:46;;;;;;;6.57;5.97;;;;;;;-1.40;93.66;95966.50;6025104;23;20432;-70
2020/12/20 04:25:33;;;;;;;5.27;4.77;;;;;;;-1.36;93.60;95975.72;6016514;23;20444;-70
2020/12/20 04:28:18;;;;;;;8.17;5.37;;;;;;;-1.46;92.92;95973.75;6026272;23;20437;-70
2020/12/20 04:30:46;;;;;;;5.83;4.37;;;;;;;-1.51;93.64;95973.22;6026039;23;20215;-70
2020/12/20 04:33:19;;;;;;;7.50;6.37;;;;;;;-1.53;93.86;95982.88;6026293;23;20432;-70
2020/12/20 04:35:49;;;;;;;12.07;6.00;;;;;;;-1.47;93.93;95977.25;6026510;23;20770;-70
2020/12/20 04:38:17;;;;;;;7.43;5.53;;;;;;;-1.41;93.69;95981.22;6026122;23;20441;-70
2020/12/20 04:40:46;;;;;;;8.07;6.60;;;;;;;-1.48;93.66;95978.19;6026168;23;20432;-70
2020/12/20 04:43:14;;;;;;;9.13;6.43;;;;;;;-1.50;93.74;95977.47;6025437;23;20435;-70
2020/12/20 04:45:48;;;;;;;17.30;5.83;;;;;;;-1.56;93.94;95983.03;6026620;23;20982;-70
2020/12/20 04:48:35;;;;;;;6.80;5.87;;;;;;;-1.58;94.02;95984.91;6026454;23;20447;-71
2020/12/20 04:51:02;;;;;;;8.23;6.40;;;;;;;-1.53;93.92;95982.03;6025640;23;20451;-70
2020/12/20 04:53:30;;;;;;;5.83;5.23;;;;;;;-1.57;94.14;95981.38;6026343;23;20523;-70
2020/12/20 04:56:03;;;;;;;6.57;5.90;;;;;;;-1.64;94.13;95975.00;6025575;23;20443;-70
2020/12/20 04:58:48;;;;;;;12.00;6.47;;;;;;;-1.67;93.84;95970.00;6026366;23;20431;-70
2020/12/20 05:01:16;;;;;;;6.10;4.77;;;;;;;-1.63;94.21;95976.66;6026002;23;20436;-70
2020/12/20 05:03:44;;;;;;;5.53;5.10;;;;;;;-1.63;94.55;95968.88;6026491;23;20518;-70
2020/12/20 05:06:12;;;;;;;6.27;5.87;;;;;;;-1.51;94.38;95970.66;6027307;23;20436;-70
2020/12/20 05:08:42;;;;;;;5.60;5.10;;;;;;;-1.57;94.78;95965.88;6026085;23;20490;-70
2020/12/20 05:11:31;;;;;;;7.00;6.40;;;;;;;-1.57;94.20;95976.22;6026331;23;20431;-70
2020/12/20 05:13:58;;;;;;;5.00;4.43;;;;;;;-1.56;94.30;95985.63;6025543;23;20450;-70
2020/12/20 05:16:34;;;;;;;4.93;4.53;;;;;;;-1.52;94.02;95974.16;6027142;23;20782;-70
2020/12/20 05:19:08;;;;;;;5.13;4.63;;;;;;;-1.51;94.07;95969.81;6028073;23;20463;-70
2020/12/20 05:21:36;;;;;;;5.30;4.70;;;;;;;-1.51;93.77;95965.47;6028174;23;20447;-70
2020/12/20 05:24:24;;;;;;;4.20;3.90;;;;;;;-1.52;93.51;95963.00;6027936;23;21007;-70
2020/12/20 05:26:52;;;;;;;6.20;5.60;;;;;;;-1.56;93.06;95957.16;6027384;23;20526;-69
2020/12/20 05:29:26;;;;;;;7.60;7.00;;;;;;;-1.50;93.40;95950.78;6028575;23;20431;-70
2020/12/20 05:31:53;;;;;;;6.53;4.70;;;;;;;-1.53;93.45;95954.41;6029267;23;21063;-70
2020/12/20 05:34:39;;;;;;;5.37;4.87;;;;;;;-1.54;93.70;95960.50;6027723;23;20530;-69
2020/12/20 05:37:08;;;;;;;7.07;6.43;;;;;;;-1.57;93.53;95965.03;6027857;23;21230;-70
2020/12/20 05:39:58;;;;;;;7.80;5.93;;;;;;;-1.63;93.78;95963.72;6027605;23;20443;-70
2020/12/20 05:42:36;;;;;;;7.47;6.07;;;;;;;-1.64;93.66;95963.81;6027509;23;20476;-70
2020/12/20 05:45:08;;;;;;;5.00;4.60;;;;;;;-1.64;93.59;95964.66;6027364;23;20510;-70
2020/12/20 05:47:44;;;;;;;6.03;5.43;;;;;;;-1.62;93.65;95962.78;6028227;23;20447;-70
2020/12/20 05:50:12;;;;;;;5.30;4.90;;;;;;;-1.61;93.36;95964.44;6023570;23;20514;-70
2020/12/20 05:52:40;;;;;;;4.30;3.90;;;;;;;-1.66;93.19;95961.31;6028322;23;20939;-70
2020/12/20 05:55:11;;;;;;;6.17;4.83;;;;;;;-1.62;93.10;95957.59;6029421;23;20992;-70
2020/12/20 05:57:39;;;;;;;5.30;4.83;;;;;;;-1.69;93.41;95966.69;6025442;23;20451;-70
2020/12/20 06:00:07;;;;;;;5.07;4.67;;;;;;;-1.72;93.46;95977.25;6023642;23;20510;-70
2020/12/20 06:02:41;;;;;;;5.50;5.00;;;;;;;-1.74;94.04;95976.50;6027527;23;20494;-70
2020/12/20 06:05:09;;;;;;;6.50;4.83;;;;;;;-1.65;93.46;95973.31;6029529;23;20447;-70
2020/12/20 06:07:44;;;;;;;4.47;4.07;;;;;;;-1.63;93.66;95984.41;6028348;23;20517;-70
2020/12/20 06:10:15;;;;;;;3.10;2.90;;;;;;;-1.63;93.43;95978.41;6027930;23;20473;-70
2020/12/20 06:12:50;;;;;;;5.47;4.50;;;;;;;-1.60;93.41;95971.25;6026264;23;20440;-70
2020/12/20 06:15:19;;;;;;;5.47;5.07;;;;;;;-1.61;93.50;95961.84;6028188;23;20812;-70
2020/12/20 06:17:54;;;;;;;5.80;5.20;;;;;;;-1.57;93.14;95955.50;6028934;23;20424;-69
2020/12/20 06:20:29;;;;;;;5.10;4.60;;;;;;;-1.55;93.47;95956.25;6028722;23;20435;-70
2020/12/20 06:22:57;;;;;;;5.53;5.03;;;;;;;-1.60;93.28;95960.09;6029551;23;20432;-70
2020/12/20 06:25:27;;;;;;;4.33;4.03;;;;;;;-1.70;93.17;95967.63;6027554;23;20432;-70
2020/12/20 06:28:02;;;;;;;5.20;4.83;;;;;;;-1.71;93.90;95973.72;6029030;23;20438;-69
2020/12/20 06:30:29;;;;;;;4.97;4.63;;;;;;;-1.71;93.96;95973.72;6027448;23;20965;-69
2020/12/20 06:33:02;;;;;;;4.20;3.90;;;;;;;-1.68;94.23;95980.47;6028293;23;20825;-70
2020/12/20 06:35:31;;;;;;;4.60;4.30;;;;;;;-1.69;94.50;95984.81;6029227;23;20447;-70
2020/12/20 06:37:58;;;;;;;5.43;5.00;;;;;;;-1.68;94.91;95989.03;6026680;23;20432;-70
2020/12/20 06:40:42;;;;;;;7.10;6.17;;;;;;;-1.64;94.91;95995.69;6029770;23;21109;-69
2020/12/20 06:43:09;;;;;;;26.53;14.97;;;;;;;-1.60;94.70;95996.31;6023246;23;20440;-70
2020/12/20 06:45:42;;;;;;;16.60;8.97;;;;;;;-1.58;94.91;96003.03;6029011;23;20443;-70
2020/12/20 06:48:12;;;;;;;6.50;6.03;;;;;;;-1.55;94.27;95989.91;6028303;23;20435;-69
2020/12/20 06:50:48;;;;;;;9.83;9.00;;;;;;;-1.55;94.28;95992.50;6028576;23;20440;-70
2020/12/20 06:53:17;;;;;;;6.37;5.77;;;;;;;-1.52;93.65;95988.88;6029458;23;20499;-70
2020/12/20 06:55:44;;;;;;;5.60;5.10;;;;;;;-1.49;93.34;95983.47;6029050;23;20443;-70
2020/12/20 06:58:17;;;;;;;4.83;4.43;;;;;;;-1.50;93.09;95987.00;6027744;23;20876;-69
2020/12/20 07:00:50;;;;;;;5.60;5.07;;;;;;;-1.50;92.66;95977.47;6028469;23;20519;-69
2020/12/20 07:03:40;;;;;;;6.13;5.53;;;;;;;-1.53;92.47;95979.44;6028535;23;20435;-69
2020/12/20 07:06:13;;;;;;;10.67;9.77;;;;;;;-1.56;92.24;95975.28;6028896;23;20448;-70
2020/12/20 07:08:54;;;;;;;7.17;6.53;;;;;;;-1.64;92.26;95974.16;6028659;23;20998;-70
2020/12/20 07:11:24;;;;;;;7.00;6.40;;;;;;;-1.64;92.33;95980.16;6028250;23;20511;-69
2020/12/20 07:13:54;;;;;;;6.43;5.93;;;;;;;-1.67;92.64;95975.19;6026588;23;20428;-69
2020/12/20 07:16:22;;;;;;;4.43;4.03;;;;;;;-1.67;92.08;95977.75;6028069;23;20876;-70
2020/12/20 07:18:57;;;;;;;4.87;4.57;;;;;;;-1.71;92.54;95976.31;6028918;23;20435;-70
2020/12/20 07:22:08;;;;;;;4.20;3.90;;;;;;;-1.75;92.83;95983.44;6028609;23;20435;-70
2020/12/20 07:24:37;;;;;;;6.73;6.10;;;;;;;-1.70;92.91;95983.16;6022714;23;20527;-70
2020/12/20 07:27:06;;;;;;;6.67;5.83;;;;;;;-1.66;93.15;95979.41;6028803;23;20452;-70
2020/12/20 07:29:35;;;;;;;6.93;5.93;;;;;;;-1.62;92.71;95973.13;6028984;23;20502;-70
2020/12/20 07:32:04;;;;;;;4.30;4.00;;;;;;;-1.68;92.71;95986.47;6027953;23;20443;-69
2020/12/20 07:34:32;;;;;;;4.97;4.67;;;;;;;-1.60;92.47;95988.53;6028677;23;20439;-70
2020/12/20 07:36:59;;;;;;;4.27;3.93;;;;;;;-1.64;92.48;95985.34;6027389;23;20507;-70
2020/12/20 07:39:26;;;;;;;4.77;4.37;;;;;;;-1.65;92.10;95978.47;6027444;23;20428;-70
2020/12/20 07:41:58;;;;;;;4.63;4.23;;;;;;;-1.63;92.87;95991.34;6028127;23;20438;-70
2020/12/20 07:44:32;;;;;;;4.73;4.33;;;;;;;-1.63;92.63;95997.34;6027449;23;20852;-69
2020/12/20 07:47:09;;;;;;;4.03;3.73;;;;;;;-1.60;92.73;96002.31;6029265;23;20437;-70
2020/12/20 07:49:36;;;;;;;5.90;5.33;;;;;;;-1.45;92.39;96005.66;6026122;23;20975;-69
2020/12/20 07:52:08;;;;;;;4.97;4.40;;;;;;;-1.44;92.01;96002.97;6026525;23;20436;-68
2020/12/20 07:54:35;;;;;;;7.43;6.83;;;;;;;-1.50;92.08;96008.53;6028525;23;20440;-69
2020/12/20 07:57:04;;;;;;;3.80;3.60;;;;;;;-1.52;92.01;96015.56;6025906;23;20824;-70
2020/12/20 07:59:32;;;;;;;4.33;4.03;;;;;;;-1.52;91.63;96025.94;6028209;23;20432;-70
2020/12/20 08:01:59;;;;;;;4.17;3.87;;;;;;;-1.37;92.00;96025.81;6026133;23;20436;-69
2020/12/20 08:04:26;;;;;;;3.67;3.47;;;;;;;-1.41;91.40;96030.38;6028273;23;20504;-70
2020/12/20 08:06:53;;;;;;;3.93;3.63;;;;;;;-1.38;91.65;96030.16;6026969;23;20490;-69
2020/12/20 08:09:23;;;;;;;4.60;4.23;;;;;;;-1.27;91.45;96026.91;6028037;23;20452;-70
2020/12/20 08:11:51;;;;;;;4.17;3.87;;;;;;;-1.21;91.79;96026.47;6028697;23;20443;-69
2020/12/20 08:14:21;;;;;;;5.27;4.77;;;;;;;-1.19;90.89;96016.81;6029588;23;20436;-70
2020/12/20 08:16:50;;;;;;;3.50;3.20;;;;;;;-1.20;90.57;96004.81;6029985;23;20514;-69
2020/12/20 08:19:20;;;;;;;4.23;3.93;;;;;;;-1.25;90.38;96009.50;6029825;23;20440;-70
2020/12/20 08:22:11;;;;;;;4.17;3.53;;;;;;;-1.23;90.43;96021.38;6030093;23;20445;-70
2020/12/20 08:24:40;;;;;;;4.60;4.20;;;;;;;-1.21;90.79;96016.09;6021960;23;20465;-70
2020/12/20 08:27:15;;;;;;;4.43;4.13;;;;;;;-1.24;90.37;96011.16;6029965;23;20452;-70
2020/12/20 08:29:45;;;;;;;3.23;3.03;;;;;;;-1.25;90.67;96012.91;6029654;23;20500;-70
2020/12/20 08:32:14;;;;;;;4.43;4.13;;;;;;;-1.16;90.88;96011.47;6028074;23;20465;-69
2020/12/20 08:34:41;;;;;;;4.97;4.50;;;;;;;-1.18;90.80;96013.34;6029476;23;20528;-70
2020/12/20 08:37:10;;;;;;;5.23;4.87;;;;;;;-1.15;91.10;96013.13;6029380;23;20448;-70
2020/12/20 08:39:37;;;;;;;3.77;3.43;;;;;;;-1.09;91.72;96023.06;6029917;23;20439;-70
2020/12/20 08:42:06;;;;;;;4.47;4.17;;;;;;;-1.00;91.72;96021.63;6028549;23;20452;-70
2020/12/20 08:44:34;;;;;;;5.20;4.80;;;;;;;-0.99;90.71;96011.16;6027679;23;20205;-70
2020/12/20 08:47:10;;;;;;;5.30;3.90;;;;;;;-0.95;90.86;96015.16;6026080;23;20499;-70
2020/12/20 08:49:38;;;;;;;6.00;5.57;;;;;;;-0.88;90.68;96016.41;6027556;23;20483;-70
2020/12/20 08:52:07;;;;;;;4.40;4.00;;;;;;;-0.80;91.17;96017.66;6028424;23;20449;-70
2020/12/20 08:54:34;;;;;;;5.70;5.13;;;;;;;-0.72;91.25;96015.38;6028195;23;20436;-70
2020/12/20 08:57:05;;;;;;;5.73;5.17;;;;;;;-0.70;91.01;96018.66;6027394;23;20446;-70
2020/12/20 08:59:38;;;;;;;5.50;5.03;;;;;;;-0.69;91.01;96020.31;6026174;23;20424;-69
2020/12/20 09:02:08;;;;;;;5.33;4.90;;;;;;;-0.67;90.67;96021.03;6024478;23;20440;-70
2020/12/20 09:04:36;;;;;;;6.60;6.00;;;;;;;-0.64;90.22;96020.81;6027726;23;20242;-69
2020/12/20 09:07:06;;;;;;;6.60;6.00;;;;;;;-0.61;90.19;96023.22;6025955;23;20448;-69
2020/12/20 09:09:33;;;;;;;6.13;5.53;;;;;;;-0.63;90.25;96032.88;6027391;23;20214;-70
2020/12/20 09:12:14;;;;;;;5.73;5.30;;;;;;;-0.62;89.56;96032.75;6029437;23;20211;-69
2020/12/20 09:14:58;;;;;;;8.27;5.83;;;;;;;-0.61;89.56;96025.81;6026714;23;20432;-70
2020/12/20 09:17:30;;;;;;;10.67;7.00;;;;;;;-0.62;89.75;96034.53;6025445;23;20215;-70
2020/12/20 09:19:57;;;;;;;6.13;5.63;;;;;;;-0.58;89.66;96044.56;6028546;23;20210;-70
2020/12/20 09:22:41;;;;;;;4.73;4.33;;;;;;;-0.61;88.86;96041.38;6029854;23;20276;-70
2020/12/20 09:25:08;;;;;;;5.27;4.80;;;;;;;-0.62;89.23;96042.31;6030158;23;20207;-70
2020/12/20 09:27:35;;;;;;;6.67;6.07;;;;;;;-0.58;89.86;96043.72;6029451;23;20607;-70
2020/12/20 09:30:04;;;;;;;4.97;4.57;;;;;;;-0.50;89.42;96031.06;6029361;23;20837;-70
2020/12/20 09:32:38;;;;;;;5.63;5.23;;;;;;;-0.40;88.88;96033.84;6028870;23;20436;-70
2020/12/20 09:35:07;;;;;;;4.87;4.57;;;;;;;-0.37;88.56;96034.44;6029621;23;20211;-69
2020/12/20 09:37:41;;;;;;;5.77;5.13;;;;;;;-0.39;88.56;96023.34;6030084;23;20207;-69
2020/12/20 09:40:09;;;;;;;6.50;5.90;;;;;;;-0.40;89.69;96026.91;6029338;23;20264;-69
2020/12/20 09:42:40;;;;;;;6.43;5.93;;;;;;;-0.33;89.45;96032.47;6027445;23;20205;-70
2020/12/20 09:45:08;;;;;;;6.23;5.70;;;;;;;-0.25;89.84;96031.94;6029258;23;20224;-70
2020/12/20 09:47:41;;;;;;;4.80;4.40;;;;;;;-0.15;89.57;96036.38;6030137;23;20217;-70
2020/12/20 09:50:09;;;;;;;6.27;5.73;;;;;;;-0.10;88.38;96043.81;6028704;23;20267;-69
2020/12/20 09:52:38;;;;;;;5.30;4.83;;;;;;;-0.21;87.41;96043.75;6029552;23;20271;-70
2020/12/20 09:55:07;;;;;;;5.10;4.70;;;;;;;-0.38;88.10;96044.94;6029554;23;20216;-70
2020/12/20 09:57:34;;;;;;;5.33;4.93;;;;;;;-0.40;88.16;96052.81;6029050;23;20213;-70
2020/12/20 10:00:01;;;;;;;7.13;6.53;;;;;;;-0.40;88.30;96041.63;6030149;23;20264;-70
2020/12/20 10:02:37;;;;;;;5.40;4.93;;;;;;;-0.36;88.72;96046.50;6031184;23;20713;-70
2020/12/20 10:05:07;;;;;;;6.57;5.97;;;;;;;-0.28;88.85;96041.56;6030367;23;20946;-70
2020/12/20 10:07:34;;;;;;;6.13;5.57;;;;;;;-0.21;88.22;96046.34;6030172;23;20500;-70
2020/12/20 10:10:04;;;;;;;5.70;5.20;;;;;;;-0.19;88.27;96040.09;6031022;23;20204;-69
2020/12/20 10:12:31;;;;;;;4.97;3.97;;;;;;;-0.28;87.94;96041.56;6029937;23;20267;-69
2020/12/20 10:14:57;;;;;;;4.53;4.13;;;;;;;-0.29;88.36;96036.50;6030376;23;20216;-70
2020/12/20 10:17:25;;;;;;;5.07;4.77;;;;;;;-0.22;87.91;96039.50;6031261;23;20213;-69
2020/12/20 10:19:53;;;;;;;4.93;4.40;;;;;;;-0.25;87.97;96037.13;6028572;23;20221;-70
2020/12/20 10:22:20;;;;;;;6.27;5.63;;;;;;;-0.28;88.44;96036.38;6030338;23;20208;-70
2020/12/20 10:24:47;;;;;;;5.63;5.13;;;;;;;-0.22;88.44;96039.50;6030936;23;20194;-69
2020/12/20 10:27:14;;;;;;;7.23;4.70;;;;;;;-0.29;88.41;96032.16;6031769;23;20216;-70
2020/12/20 10:29:41;;;;;;;5.20;4.87;;;;;;;-0.29;88.29;96023.53;6030840;23;20208;-70
2020/12/20 10:32:08;;;;;;;5.90;5.40;;;;;;;-0.19;88.51;96034.09;6029737;23;20219;-70
2020/12/20 10:34:35;;;;;;;5.30;4.80;;;;;;;-0.16;88.42;96031.28;6031369;23;20271;-70
2020/12/20 10:37:02;;;;;;;4.83;4.43;;;;;;;-0.15;87.74;96035.53;6031274;23;20208;-72
2020/12/20 10:39:30;;;;;;;6.23;5.63;;;;;;;-0.12;88.30;96036.13;6030722;23;20284;-70
2020/12/20 10:41:57;;;;;;;5.27;4.77;;;;;;;-0.12;88.25;96024.94;6028508;23;20288;-70
2020/12/20 10:44:24;;;;;;;6.03;5.53;;;;;;;-0.05;88.75;96010.59;6030509;23;20207;-70
2020/12/20 10:46:52;;;;;;;5.57;5.17;;;;;;;-0.04;88.98;96013.06;6031059;23;20204;-70
2020/12/20 10:49:20;;;;;;;6.80;6.20;;;;;;;0.06;88.52;96009.81;6028523;23;20211;-70
2020/12/20 10:51:51;;;;;;;4.83;4.43;;;;;;;-0.01;87.75;96001.63;6028432;23;20271;-70
2020/12/20 10:54:19;;;;;;;5.60;5.20;;;;;;;-0.01;87.71;96002.47;6029067;23;20208;-70
2020/12/20 10:56:47;;;;;;;5.77;5.13;;;;;;;-0.02;88.06;96000.81;6028665;23;20212;-70
2020/12/20 10:59:15;;;;;;;5.83;5.43;;;;;;;0.01;87.95;96010.16;6028782;23;20285;-72
2020/12/20 11:01:42;;;;;;;4.77;4.33;;;;;;;0.01;87.59;96010.16;6022494;23;20201;-70
2020/12/20 11:04:09;;;;;;;6.40;5.90;;;;;;;-0.03;87.65;96009.53;6027994;23;20209;-70
2020/12/20 11:06:36;;;;;;;7.00;6.43;;;;;;;-0.05;87.17;96015.78;6022891;23;20203;-70
2020/12/20 11:09:03;;;;;;;6.33;5.77;;;;;;;-0.03;86.94;96003.53;6028572;23;20208;-70
2020/12/20 11:11:31;;;;;;;5.33;4.80;;;;;;;-0.06;87.59;96019.31;6023809;23;20208;-70
2020/12/20 11:14:00;;;;;;;4.07;3.70;;;;;;;-0.09;87.87;96015.19;6028383;23;20208;-70
2020/12/20 11:16:27;;;;;;;5.30;4.97;;;;;;;-0.06;88.00;96004.59;6027920;23;20214;-70
2020/12/20 11:18:54;;;;;;;6.90;6.27;;;;;;;-0.06;87.82;96009.78;6026566;23;20264;-70
2020/12/20 11:21:21;;;;;;;4.37;4.07;;;;;;;-0.04;87.35;96002.69;6028731;23;20206;-70
2020/12/20 11:23:49;;;;;;;5.90;5.40;;;;;;;-0.03;87.68;96004.34;6028370;23;20221;-70
2020/12/20 11:26:17;;;;;;;4.80;4.40;;;;;;;-0.02;87.82;96005.19;6028850;23;20317;-70
2020/12/20 11:28:46;;;;;;;5.47;5.07;;;;;;;0.03;87.81;95995.31;6028022;23;20279;-70
2020/12/20 11:31:15;;;;;;;5.50;5.00;;;;;;;0.12;87.70;95997.25;6028026;23;20445;-70
2020/12/20 11:33:42;;;;;;;7.03;6.43;;;;;;;0.15;86.99;95989.22;6026635;23;20291;-70
2020/12/20 11:36:14;;;;;;;4.90;4.17;;;;;;;0.11;87.29;95985.22;6028683;23;20277;-70
2020/12/20 11:38:42;;;;;;;8.00;6.10;;;;;;;0.17;87.77;96000.31;6027303;23;20224;-70
2020/12/20 11:41:09;;;;;;;5.00;4.50;;;;;;;0.17;87.75;96000.31;6028125;23;20302;-70
2020/12/20 11:43:36;;;;;;;6.97;6.40;;;;;;;0.27;87.57;96001.31;6027250;23;20217;-70
2020/12/20 11:46:05;;;;;;;6.53;6.00;;;;;;;0.26;87.80;96004.81;6028135;23;22360;-70
2020/12/20 11:48:33;;;;;;;6.13;5.53;;;;;;;0.34;87.48;96011.22;6023220;23;20265;-70
2020/12/20 11:50:59;;;;;;;6.20;5.10;;;;;;;0.41;88.18;96017.63;6027709;23;20584;-70
2020/12/20 11:53:27;;;;;;;4.87;4.47;;;;;;;0.47;87.87;96014.59;6030094;23;20280;-70